Brandon, SD

11:05 PM CDT on August 20, 2014 (GMT -0500)
East Sioux Falls | Change Station
CLOSE
Current Station
Personal Weather Station
Location: Sioux Falls, SD
Elevation: 1473 ft
Nearby Weather Stations

Elev 1473 ft 43.55 °N, 96.66 °W | Updated 4 seconds ago

Overcast
Overcast
72.5 °F
Feels Like 72.5 °F
N
0.0
Wind Variable Wind from East
Gusts 0.0 mph

Today
High -- | Low -- °F
--% Chance of Precip.
Yesterday
High -- | Low -- °F
Precip. -- in
6:36 AM 8:21 PM
Waning Crescent, 17% visible
Pressure 29.72 in
Visibility 10.0 miles
Clouds Few 1000 ft
Few 7000 ft
Scattered Clouds 8000 ft
Overcast 17000 ft
Dew Point 71 °F
Humidity 96%
Rainfall 0.05 in
Snow Depth Not available.
UV 0 out of 12
Pollen 8.50 out of 12
Air Quality Not available.
Flu Activity Not available.
METAR KFSD 210356Z 14008KT 10SM FEW010 FEW070 SCT080 OVC170 23/22 A2975 RMK AO2 SLP064 T02330217

More Conditions Fewer Conditions

Pressure 29.72 in
Visibility 10.0 miles
Clouds Few 1000 ft
Few 7000 ft
Scattered Clouds 8000 ft
Overcast 17000 ft
Dew Point 71 °F
Humidity 96%
Rainfall 0.05 in
Snow Depth Not available.
UV 0 out of 12
Pollen 8.50 out of 12
Air Quality Not available.
Flu Activity Not available.
METAR KFSD 210356Z 14008KT 10SM FEW010 FEW070 SCT080 OVC170 23/22 A2975 RMK AO2 SLP064 T02330217

More Conditions Fewer Conditions

10-Day Weather Forecast

Almanac

Astronomy

Aug. 20, 2014 Rise Set
Actual Time 6:36 AM CDT 8:21 PM CDT
Civil Twilight 6:06 AM CDT 8:52 PM CDT
Nautical Twilight 5:28 AM CDT 9:29 PM CDT
Astronomical Twilight 4:48 AM CDT 10:09 PM CDT
Moon 2:14 AM CDT (8/20) 5:10 PM CDT (8/20)
Length of Visible Light 14h 46m
Length of Day
13h 45m
Tomorrow will be 2m 44s shorter.
Waning Crescent, 17% of the Moon is Illuminated
Aug 21
Waning Crescent
Aug 25
New
Sep 2
First Quarter
Sep 8
Full
Sep 15
Last Quarter

Today's Extremes

State Highs State Lows

Community

WunderPhotos

Upload Photos

1,745,851 photos uploaded!

Nearby

Snow Depth

Station Depth Elevation
Blind Park 0 in 6890 ft

Earthquake Activity

City Distance Mag. Time & Date
No recent earthquake activity has been reported nearby.
Minimum magnitude displayed is 2.5.

Coastal Water Temperatures

Place Temperature
No Stations Reporting

Nearby Weather Stations